createdAt,value
2023-04-21T00:00:49.029Z,90.42
2023-04-21T00:01:49.137Z,90.42
2023-04-21T00:02:49.321Z,90.42
2023-04-21T00:03:49.569Z,90.43
2023-04-21T00:04:49.629Z,90.43
2023-04-21T00:05:49.624Z,90.44
2023-04-21T00:06:49.833Z,90.48
2023-04-21T00:07:49.854Z,90.55
2023-04-21T00:08:49.908Z,90.63
2023-04-21T00:09:50.041Z,90.69
2023-04-21T00:10:50.268Z,90.71
2023-04-21T00:11:50.270Z,90.74
2023-04-21T00:12:50.366Z,90.80
2023-04-21T00:13:50.481Z,90.84
2023-04-21T00:14:50.593Z,90.80
2023-04-21T00:15:50.752Z,90.83
2023-04-21T00:16:50.825Z,90.85
2023-04-21T00:17:51.004Z,90.87
2023-04-21T00:18:51.109Z,90.93
2023-04-21T00:19:51.172Z,90.97
2023-04-21T00:20:51.271Z,91.03
2023-04-21T00:21:51.390Z,91.04
2023-04-21T00:22:51.497Z,91.05
2023-04-21T00:23:51.711Z,91.06
2023-04-21T00:24:51.724Z,91.10
2023-04-21T00:25:51.836Z,91.11
2023-04-21T00:26:51.957Z,91.10
2023-04-21T00:27:52.147Z,91.12
2023-04-21T00:28:52.170Z,91.15
2023-04-21T00:29:52.298Z,91.24
2023-04-21T00:30:52.459Z,91.24
2023-04-21T00:31:52.602Z,91.26
2023-04-21T00:32:52.751Z,91.28
2023-04-21T00:33:52.766Z,91.28
2023-04-21T00:34:52.914Z,91.31
2023-04-21T00:35:53.009Z,91.32
2023-04-21T00:36:53.168Z,91.29
2023-04-21T00:37:53.305Z,91.29
2023-04-21T00:38:53.389Z,91.32
2023-04-21T00:39:53.569Z,91.31
2023-04-21T00:40:53.635Z,91.27
2023-04-21T00:41:53.788Z,91.28
2023-04-21T00:42:53.836Z,91.25
2023-04-21T00:43:54.011Z,91.30
2023-04-21T00:44:54.057Z,91.29
2023-04-21T00:45:54.201Z,91.28
2023-04-21T00:46:54.318Z,91.24
2023-04-21T00:47:54.442Z,91.18
2023-04-21T00:48:54.526Z,91.21
2023-04-21T00:49:54.668Z,91.21
2023-04-21T00:50:54.754Z,91.24
2023-04-21T00:51:54.883Z,91.22
2023-04-21T00:52:54.986Z,91.21
2023-04-21T00:53:55.086Z,91.17
2023-04-21T00:54:55.227Z,91.13
2023-04-21T00:55:55.320Z,91.10
2023-04-21T00:56:55.478Z,91.11
2023-04-21T00:57:55.578Z,91.07
2023-04-21T00:58:55.703Z,91.08
2023-04-21T00:59:55.803Z,91.07
2023-04-21T01:00:55.897Z,91.11
2023-04-21T01:01:56.059Z,91.15
2023-04-21T01:02:56.242Z,91.15
2023-04-21T01:03:56.450Z,91.17
2023-04-21T01:04:56.397Z,91.22
2023-04-21T01:05:56.534Z,91.28
2023-04-21T01:06:56.615Z,91.23
2023-04-21T01:07:56.711Z,91.15
2023-04-21T01:08:56.828Z,91.15
2023-04-21T01:09:56.934Z,91.16
2023-04-21T01:10:57.092Z,91.20
2023-04-21T01:11:57.188Z,91.19
2023-04-21T01:12:57.276Z,91.13
2023-04-21T01:13:57.398Z,91.07
2023-04-21T01:14:57.576Z,91.02
2023-04-21T01:15:57.608Z,91.06
2023-04-21T01:16:57.976Z,91.07
2023-04-21T01:17:57.846Z,91.11
2023-04-21T01:18:58.005Z,91.17
2023-04-21T01:19:58.053Z,91.20
2023-04-21T01:20:58.171Z,91.23
2023-04-21T01:21:58.407Z,91.21
2023-04-21T01:22:58.423Z,91.25
2023-04-21T01:23:58.560Z,91.29
2023-04-21T01:24:58.616Z,91.31
2023-04-21T01:25:58.751Z,91.34
2023-04-21T01:26:58.838Z,91.32
2023-04-21T01:27:58.950Z,91.27
2023-04-21T01:28:59.066Z,91.28
2023-04-21T01:29:59.220Z,91.31
2023-04-21T01:30:59.359Z,91.36
2023-04-21T01:31:59.478Z,91.36
2023-04-21T01:32:59.542Z,91.38
2023-04-21T01:33:59.621Z,91.33
2023-04-21T01:34:59.809Z,91.25
2023-04-21T01:35:59.841Z,91.24
2023-04-21T01:36:59.976Z,91.23
2023-04-21T01:38:00.113Z,91.18
2023-04-21T01:39:00.181Z,91.21
2023-04-21T01:40:00.309Z,91.23
2023-04-21T01:41:00.418Z,91.23
2023-04-21T01:42:00.561Z,91.21
2023-04-21T01:43:00.699Z,91.25
2023-04-21T01:44:00.842Z,91.27
2023-04-21T01:45:00.944Z,91.26
2023-04-21T01:46:01.065Z,91.29
2023-04-21T01:47:01.126Z,91.28
2023-04-21T01:48:01.265Z,91.24
2023-04-21T01:49:01.363Z,91.28
2023-04-21T01:50:01.533Z,91.30
2023-04-21T01:51:01.580Z,91.31
2023-04-21T01:52:01.690Z,91.31
2023-04-21T01:53:01.808Z,91.32
2023-04-21T01:54:01.961Z,91.34
2023-04-21T01:55:02.062Z,91.30
2023-04-21T01:56:02.136Z,91.28
2023-04-21T01:57:02.308Z,91.28
2023-04-21T01:58:02.443Z,91.25
2023-04-21T01:59:02.546Z,91.24
2023-04-21T02:00:02.584Z,91.28
2023-04-21T02:01:02.791Z,91.29
2023-04-21T02:02:02.878Z,91.30
2023-04-21T02:03:03.115Z,91.36
2023-04-21T02:04:03.484Z,91.37
2023-04-21T02:05:03.214Z,91.40
2023-04-21T02:06:03.263Z,91.26
2023-04-21T02:07:03.370Z,91.29
2023-04-21T02:08:03.468Z,91.30
2023-04-21T02:09:03.624Z,91.38
2023-04-21T02:10:03.729Z,91.43
2023-04-21T02:11:03.826Z,91.42
2023-04-21T02:12:03.935Z,91.40
2023-04-21T02:13:04.104Z,91.41
2023-04-21T02:14:04.349Z,91.43
2023-04-21T02:15:04.404Z,91.47
2023-04-21T02:16:13.285Z,91.51
2023-04-21T02:17:05.586Z,91.53
2023-04-21T02:18:04.908Z,91.49
2023-04-21T02:19:04.759Z,91.51
2023-04-21T02:20:04.858Z,91.50
2023-04-21T02:21:05.063Z,91.46
2023-04-21T02:22:05.186Z,91.49
2023-04-21T02:23:05.362Z,91.48
2023-04-21T02:24:05.614Z,91.48
2023-04-21T02:25:05.524Z,91.52
2023-04-21T02:26:05.731Z,91.54
2023-04-21T02:27:05.913Z,91.56
2023-04-21T02:28:05.940Z,91.53
2023-04-21T02:29:06.038Z,91.52
2023-04-21T02:30:06.280Z,91.51
2023-04-21T02:31:06.225Z,91.54
2023-04-21T02:33:06.422Z,91.56
2023-04-21T02:34:06.481Z,91.47
2023-04-21T02:35:06.808Z,91.50
2023-04-21T02:36:06.687Z,91.47
2023-04-21T02:37:06.796Z,91.48
2023-04-21T02:38:06.911Z,91.49
2023-04-21T02:39:07.006Z,91.50
2023-04-21T02:40:07.183Z,91.48
2023-04-21T02:41:07.432Z,91.41
2023-04-21T02:42:07.348Z,91.39
2023-04-21T02:43:07.517Z,91.41
2023-04-21T02:44:07.612Z,91.41
2023-04-21T02:45:07.708Z,91.40
2023-04-21T02:46:07.971Z,91.46
2023-04-21T02:47:08.173Z,91.48
2023-04-21T02:48:08.138Z,91.50
2023-04-21T02:49:08.233Z,91.54
2023-04-21T02:50:08.316Z,91.56
2023-04-21T02:51:08.435Z,91.57
2023-04-21T02:52:08.544Z,91.60
2023-04-21T02:53:08.710Z,91.63
2023-04-21T02:54:08.794Z,91.63
2023-04-21T02:55:08.949Z,91.64
2023-04-21T02:56:08.996Z,91.61
2023-04-21T02:57:09.169Z,91.63
2023-04-21T02:58:09.215Z,91.64
2023-04-21T02:59:09.358Z,91.65
2023-04-21T03:00:09.470Z,91.67
2023-04-21T03:01:09.641Z,91.67
2023-04-21T03:02:09.705Z,91.66
2023-04-21T03:03:09.920Z,91.64
2023-04-21T03:04:10.144Z,91.69
2023-04-21T03:05:10.059Z,91.69
2023-04-21T03:06:10.158Z,91.70
2023-04-21T03:07:10.280Z,91.71
2023-04-21T03:08:10.397Z,91.72
2023-04-21T03:09:10.558Z,91.73
2023-04-21T03:10:10.620Z,91.72
2023-04-21T03:11:10.738Z,91.76
2023-04-21T03:12:10.851Z,91.79
2023-04-21T03:13:10.995Z,91.85
2023-04-21T03:14:11.068Z,91.88
2023-04-21T03:15:11.173Z,91.90
2023-04-21T03:16:11.379Z,91.88
2023-04-21T03:17:11.425Z,91.81
2023-04-21T03:18:11.778Z,91.79
2023-04-21T03:19:11.655Z,91.78
2023-04-21T03:20:11.812Z,91.77
2023-04-21T03:21:11.889Z,91.74
2023-04-21T03:22:11.987Z,91.73
2023-04-21T03:23:12.105Z,91.70
2023-04-21T03:24:12.284Z,91.70
2023-04-21T03:25:12.339Z,91.72
2023-04-21T03:26:12.481Z,91.76
2023-04-21T03:27:12.563Z,91.81
2023-04-21T03:28:12.683Z,91.83
2023-04-21T03:29:12.782Z,91.85
2023-04-21T03:30:12.922Z,91.90
2023-04-21T03:31:13.057Z,91.99
2023-04-21T03:32:13.209Z,92.04
2023-04-21T03:33:13.265Z,92.13
2023-04-21T03:34:13.603Z,92.15
2023-04-21T03:35:13.482Z,92.15
2023-04-21T03:36:13.590Z,92.18
2023-04-21T03:37:13.701Z,92.17
2023-04-21T03:38:13.857Z,92.17
2023-04-21T03:40:15.056Z,92.14
2023-04-21T03:41:14.146Z,92.11
2023-04-21T03:42:14.262Z,92.07
2023-04-21T03:43:14.468Z,92.02
2023-04-21T03:44:14.538Z,92.02
2023-04-21T03:45:14.672Z,92.03
2023-04-21T03:46:14.811Z,92.08
2023-04-21T03:47:14.906Z,92.09
2023-04-21T03:48:15.015Z,92.09
2023-04-21T03:49:15.138Z,92.07
2023-04-21T03:50:15.264Z,92.15
2023-04-21T03:51:15.371Z,92.17
2023-04-21T03:52:15.467Z,92.16
2023-04-21T03:53:15.761Z,92.12
2023-04-21T03:54:15.710Z,92.14
2023-04-21T03:55:15.820Z,92.18
2023-04-21T03:56:15.924Z,92.24
2023-04-21T03:57:16.042Z,92.32
2023-04-21T03:58:16.159Z,92.39
2023-04-21T03:59:16.265Z,92.43
2023-04-21T04:00:16.355Z,92.49
2023-04-21T04:01:16.527Z,92.57
2023-04-21T04:02:16.612Z,92.56
2023-04-21T04:03:16.893Z,92.53
2023-04-21T04:04:17.010Z,92.51
2023-04-21T04:05:17.050Z,92.53
2023-04-21T04:06:17.090Z,92.55
2023-04-21T04:07:17.198Z,92.57
2023-04-21T04:08:17.309Z,92.57
2023-04-21T04:09:17.550Z,92.56
2023-04-21T04:10:17.532Z,92.55
2023-04-21T04:11:17.669Z,92.57
2023-04-21T04:12:17.732Z,92.54
2023-04-21T04:13:17.845Z,92.59
2023-04-21T04:14:17.964Z,92.70
2023-04-21T04:15:18.088Z,92.71
2023-04-21T04:16:18.276Z,92.76
2023-04-21T04:17:18.308Z,92.76
2023-04-21T04:18:18.447Z,92.72
2023-04-21T04:19:18.965Z,92.79
2023-04-21T04:20:18.679Z,92.79
2023-04-21T04:21:18.818Z,92.79
2023-04-21T04:22:19.158Z,92.78
2023-04-21T04:23:19.012Z,92.84
2023-04-21T04:24:19.122Z,92.83
2023-04-21T04:25:19.232Z,92.88
2023-04-21T04:26:19.351Z,92.91
2023-04-21T04:27:19.470Z,92.92
2023-04-21T04:28:19.599Z,92.90
2023-04-21T04:29:19.845Z,92.86
2023-04-21T04:30:19.798Z,92.85
2023-04-21T04:31:19.927Z,92.81
2023-04-21T04:32:20.018Z,92.87
2023-04-21T04:33:20.132Z,92.91
2023-04-21T04:34:20.239Z,92.94
2023-04-21T04:35:20.429Z,92.98
2023-04-21T04:36:20.483Z,93.02
2023-04-21T04:37:21.004Z,93.04
2023-04-21T04:38:20.717Z,93.06
2023-04-21T04:39:20.969Z,93.08
2023-04-21T04:40:20.926Z,93.17
2023-04-21T04:41:21.090Z,93.26
2023-04-21T04:42:21.168Z,93.30
2023-04-21T04:43:21.288Z,93.30
2023-04-21T04:44:21.597Z,93.33
2023-04-21T04:45:21.514Z,93.33
2023-04-21T04:46:21.727Z,93.28
2023-04-21T04:47:21.752Z,93.24
2023-04-21T04:48:21.856Z,93.22
2023-04-21T04:49:24.033Z,93.20
2023-04-21T04:50:22.108Z,93.22
2023-04-21T04:51:22.167Z,93.20
2023-04-21T04:52:22.316Z,93.17
2023-04-21T04:53:22.387Z,93.18
2023-04-21T04:54:22.613Z,93.15
2023-04-21T04:55:22.690Z,93.06
2023-04-21T04:56:22.712Z,93.03
2023-04-21T04:57:22.806Z,92.98
2023-04-21T04:58:22.954Z,92.97
2023-04-21T04:59:23.054Z,92.95
2023-04-21T05:00:23.171Z,92.92
2023-04-21T05:01:23.373Z,92.88
2023-04-21T05:02:23.527Z,92.89
2023-04-21T05:03:23.703Z,92.87
2023-04-21T05:04:24.021Z,92.89
2023-04-21T05:05:23.740Z,92.87
2023-04-21T05:06:23.855Z,92.88
2023-04-21T05:07:23.967Z,92.88
2023-04-21T05:08:24.103Z,92.89
2023-04-21T05:09:24.167Z,92.86
2023-04-21T05:10:24.319Z,92.85
2023-04-21T05:11:24.396Z,92.85
2023-04-21T05:12:24.512Z,92.83
2023-04-21T05:13:24.687Z,92.81
2023-04-21T05:14:24.739Z,92.80
2023-04-21T05:15:24.915Z,92.77
2023-04-21T05:16:25.051Z,92.77
2023-04-21T05:17:25.173Z,92.80
2023-04-21T05:18:25.299Z,92.84
2023-04-21T05:19:25.321Z,92.86
2023-04-21T05:20:25.475Z,92.84
2023-04-21T05:21:25.584Z,92.86
2023-04-21T05:22:25.669Z,92.80
2023-04-21T05:23:25.779Z,92.79
2023-04-21T05:24:25.963Z,92.76
2023-04-21T05:25:26.019Z,92.64
2023-04-21T05:26:26.155Z,92.65
2023-04-21T05:27:26.256Z,92.65
2023-04-21T05:28:26.427Z,92.59
2023-04-21T05:29:26.534Z,92.52
2023-04-21T05:30:26.594Z,92.49
2023-04-21T05:31:26.749Z,92.46
2023-04-21T05:32:26.976Z,92.45
2023-04-21T05:33:27.107Z,92.49
2023-04-21T05:34:27.033Z,92.60
2023-04-21T05:35:27.170Z,92.60
2023-04-21T05:36:27.283Z,92.40
2023-04-21T05:37:27.406Z,92.30
2023-04-21T05:38:27.559Z,92.29
2023-04-21T05:39:27.618Z,91.82
2023-04-21T05:40:27.723Z,91.56
2023-04-21T05:41:27.833Z,91.37
2023-04-21T05:42:27.942Z,91.36
2023-04-21T05:43:28.054Z,91.00
2023-04-21T05:44:28.191Z,90.89
2023-04-21T05:45:28.324Z,90.68
2023-04-21T05:46:28.462Z,90.28
2023-04-21T05:47:28.571Z,89.95
2023-04-21T05:48:28.668Z,89.60
2023-04-21T05:49:28.799Z,89.22
2023-04-21T05:50:28.915Z,88.69
2023-04-21T05:51:28.974Z,88.39
2023-04-21T05:52:29.085Z,88.74
2023-04-21T05:53:29.217Z,88.57
2023-04-21T05:54:29.301Z,88.59
2023-04-21T05:55:29.476Z,88.53
2023-04-21T05:56:29.519Z,87.76
2023-04-21T05:57:29.641Z,87.60
2023-04-21T05:58:29.752Z,87.46
2023-04-21T05:59:29.883Z,87.48
2023-04-21T06:00:30.086Z,86.80
2023-04-21T06:01:30.133Z,86.79
2023-04-21T06:02:30.390Z,87.00
2023-04-21T06:03:30.517Z,86.60
2023-04-21T06:04:30.566Z,86.74
2023-04-21T06:05:30.658Z,86.38
2023-04-21T06:06:30.642Z,86.28
2023-04-21T06:07:30.742Z,85.86
2023-04-21T06:08:30.898Z,86.42
2023-04-21T06:09:31.032Z,86.16
2023-04-21T06:10:31.144Z,86.44
2023-04-21T06:11:31.234Z,86.78
2023-04-21T06:12:31.342Z,85.94
2023-04-21T06:13:31.475Z,85.27
2023-04-21T06:14:31.578Z,85.59
2023-04-21T06:15:31.755Z,84.31
2023-04-21T06:16:31.948Z,84.49
2023-04-21T06:17:31.926Z,83.63
2023-04-21T06:18:32.030Z,83.58
2023-04-21T06:19:32.134Z,84.16
2023-04-21T06:20:32.263Z,84.18
2023-04-21T06:21:32.416Z,84.07
2023-04-21T06:22:32.461Z,83.86
2023-04-21T06:23:32.582Z,83.20
2023-04-21T06:24:32.696Z,83.88
2023-04-21T06:25:32.816Z,83.39
2023-04-21T06:26:32.949Z,82.98
2023-04-21T06:27:33.160Z,83.28
2023-04-21T06:28:33.182Z,83.36
2023-04-21T06:29:33.294Z,83.65
2023-04-21T06:30:33.411Z,83.66
2023-04-21T06:31:33.534Z,83.42
2023-04-21T06:32:33.831Z,82.30
2023-04-21T06:33:33.790Z,83.07
2023-04-21T06:34:33.851Z,82.70
2023-04-21T06:35:34.165Z,82.86
2023-04-21T06:36:34.103Z,83.00
2023-04-21T06:37:34.251Z,83.41
2023-04-21T06:38:34.383Z,82.56
2023-04-21T06:39:34.476Z,83.09
2023-04-21T06:40:34.578Z,83.37
2023-04-21T06:41:34.716Z,83.19
2023-04-21T06:42:34.946Z,83.55
2023-04-21T06:43:34.949Z,84.18
2023-04-21T06:44:35.089Z,84.01
2023-04-21T06:45:35.152Z,83.20
2023-04-21T06:46:35.340Z,82.45
2023-04-21T06:47:35.400Z,83.44
2023-04-21T06:48:35.490Z,83.12
2023-04-21T06:49:35.609Z,83.71
2023-04-21T06:50:35.677Z,83.38
2023-04-21T06:51:35.797Z,82.91
2023-04-21T06:52:35.909Z,83.48
2023-04-21T06:53:36.093Z,83.02
2023-04-21T06:54:36.146Z,82.82
2023-04-21T06:55:36.356Z,82.45
2023-04-21T06:56:36.410Z,82.10
2023-04-21T06:57:36.457Z,82.90
2023-04-21T06:58:36.580Z,83.10
2023-04-21T06:59:36.739Z,81.99
2023-04-21T07:00:36.775Z,81.73
2023-04-21T07:01:37.117Z,81.93
2023-04-21T07:02:37.143Z,82.47
2023-04-21T07:03:37.305Z,81.95
2023-04-21T07:04:37.282Z,81.85
2023-04-21T07:05:37.365Z,82.32
2023-04-21T07:06:37.480Z,81.44
2023-04-21T07:07:37.590Z,81.77
2023-04-21T07:08:37.781Z,82.50
2023-04-21T07:09:37.818Z,80.77
2023-04-21T07:10:37.979Z,80.97
2023-04-21T07:11:38.031Z,81.32
2023-04-21T07:12:38.168Z,80.19
2023-04-21T07:13:38.298Z,79.95
2023-04-21T07:14:38.364Z,80.54
2023-04-21T07:15:38.654Z,80.56
2023-04-21T07:16:38.617Z,81.08
2023-04-21T07:17:38.758Z,81.64
2023-04-21T07:18:38.829Z,80.92
2023-04-21T07:19:38.957Z,80.75
2023-04-21T07:20:39.045Z,80.38
2023-04-21T07:21:39.160Z,78.63
2023-04-21T07:22:39.264Z,78.91
2023-04-21T07:23:39.388Z,78.56
2023-04-21T07:24:39.524Z,77.79
2023-04-21T07:25:39.619Z,77.50
2023-04-21T07:26:39.713Z,78.16
2023-04-21T07:27:39.857Z,77.89
2023-04-21T07:28:39.948Z,77.77
2023-04-21T07:29:40.179Z,77.22
2023-04-21T07:30:40.283Z,77.09
2023-04-21T07:31:40.358Z,77.40
2023-04-21T07:32:40.422Z,76.49
2023-04-21T07:33:40.824Z,75.68
2023-04-21T07:34:40.729Z,76.28
2023-04-21T07:35:40.816Z,77.06
2023-04-21T07:36:40.906Z,76.13
2023-04-21T07:37:40.980Z,74.45
2023-04-21T07:38:41.084Z,76.37
2023-04-21T07:39:41.260Z,75.50
2023-04-21T07:40:41.648Z,74.40
2023-04-21T07:41:41.515Z,74.75
2023-04-21T07:42:41.626Z,74.54
2023-04-21T07:43:41.671Z,73.96
2023-04-21T07:44:41.774Z,73.85
2023-04-21T07:45:41.894Z,74.17
2023-04-21T07:46:42.146Z,73.34
2023-04-21T07:47:42.154Z,73.96
2023-04-21T07:48:42.224Z,73.16
2023-04-21T07:49:42.362Z,72.50
2023-04-21T07:50:42.466Z,72.49
2023-04-21T07:51:42.606Z,71.95
2023-04-21T07:52:42.716Z,72.26
2023-04-21T07:53:42.797Z,72.45
2023-04-21T07:54:42.937Z,72.73
2023-04-21T07:55:43.056Z,72.82
2023-04-21T07:56:43.210Z,72.06
2023-04-21T07:57:43.291Z,72.86
2023-04-21T07:58:43.344Z,73.29
2023-04-21T07:59:43.468Z,74.08
2023-04-21T08:00:43.585Z,74.26
2023-04-21T08:01:43.728Z,72.06
2023-04-21T08:02:43.931Z,72.05
2023-04-21T08:03:44.123Z,71.72
2023-04-21T08:04:44.292Z,70.78
2023-04-21T08:05:44.465Z,71.28
2023-04-21T08:06:44.333Z,70.83
2023-04-21T08:07:44.461Z,70.91
2023-04-21T08:08:44.574Z,71.05
2023-04-21T08:09:44.695Z,71.13
2023-04-21T08:10:44.825Z,70.57
2023-04-21T08:11:44.956Z,70.71
2023-04-21T08:12:45.376Z,70.54
2023-04-21T08:13:45.245Z,70.75
2023-04-21T08:14:45.392Z,71.40
2023-04-21T08:15:45.586Z,71.54
2023-04-21T08:16:45.791Z,70.71
2023-04-21T08:17:45.857Z,70.80
2023-04-21T08:18:45.911Z,71.45
2023-04-21T08:19:46.052Z,73.06
2023-04-21T08:20:46.159Z,72.48
2023-04-21T08:21:46.406Z,71.34
2023-04-21T08:22:48.303Z,69.47
2023-04-21T08:23:46.571Z,70.18
2023-04-21T08:24:46.719Z,69.53
2023-04-21T08:25:46.840Z,69.81
2023-04-21T08:26:47.004Z,70.16
2023-04-21T08:27:47.127Z,69.75
2023-04-21T08:28:47.258Z,69.22
2023-04-21T08:29:47.465Z,69.74
2023-04-21T08:30:47.493Z,69.63
2023-04-21T08:31:47.692Z,70.47
2023-04-21T08:32:47.777Z,70.65
2023-04-21T08:34:00.368Z,70.98
2023-04-21T08:34:49.024Z,71.49
2023-04-21T08:36:02.541Z,69.90
2023-04-21T08:36:49.259Z,70.11
2023-04-21T08:37:48.385Z,71.28
2023-04-21T08:38:48.528Z,70.38
2023-04-21T08:39:48.623Z,70.28
2023-04-21T08:40:48.790Z,70.94
2023-04-21T08:41:48.910Z,70.22
2023-04-21T08:42:49.044Z,69.97
2023-04-21T08:43:49.180Z,70.18
2023-04-21T08:44:49.310Z,70.33
2023-04-21T08:45:49.562Z,70.08
2023-04-21T08:46:49.794Z,68.15
2023-04-21T08:47:49.986Z,67.37
2023-04-21T08:48:49.867Z,69.09
2023-04-21T08:49:50.001Z,67.74
2023-04-21T08:50:50.178Z,66.91
2023-04-21T08:51:50.290Z,67.26
2023-04-21T08:52:50.332Z,67.17
2023-04-21T08:53:50.515Z,66.54
2023-04-21T08:54:50.613Z,66.81
2023-04-21T08:55:59.601Z,66.63
2023-04-21T08:56:55.243Z,65.14
2023-04-21T08:57:51.973Z,66.84
2023-04-21T08:58:51.091Z,67.10
2023-04-21T08:59:51.231Z,66.30
2023-04-21T09:00:51.456Z,67.26
2023-04-21T09:01:51.737Z,68.00
2023-04-21T09:02:59.568Z,67.27
2023-04-21T09:03:53.013Z,67.02
2023-04-21T09:04:52.402Z,66.74
2023-04-21T09:05:52.170Z,65.66
2023-04-21T09:06:52.236Z,65.88
2023-04-21T09:07:52.279Z,67.74
2023-04-21T09:08:52.488Z,67.08
2023-04-21T09:09:52.606Z,68.26
2023-04-21T09:10:53.961Z,67.24
2023-04-21T09:11:52.834Z,66.05
2023-04-21T09:12:53.009Z,66.70
2023-04-21T09:13:53.098Z,65.52
2023-04-21T09:14:53.249Z,65.84
2023-04-21T09:15:53.449Z,66.26
2023-04-21T09:16:53.468Z,67.26
2023-04-21T09:17:53.650Z,68.27
2023-04-21T09:18:53.770Z,67.95
2023-04-21T09:19:53.861Z,66.54
2023-04-21T09:20:54.002Z,65.33
2023-04-21T09:21:54.127Z,66.19
2023-04-21T09:22:54.291Z,65.67
2023-04-21T09:23:54.387Z,66.71
2023-04-21T09:24:54.523Z,67.02
2023-04-21T09:25:54.661Z,66.31
2023-04-21T09:26:54.800Z,65.00
2023-04-21T09:27:55.004Z,64.85
2023-04-21T09:28:55.123Z,65.44
2023-04-21T09:29:55.222Z,65.42
2023-04-21T09:30:55.523Z,64.42
2023-04-21T09:31:55.501Z,65.88
2023-04-21T09:32:55.755Z,64.75
2023-04-21T09:33:59.281Z,64.60
2023-04-21T09:34:55.849Z,64.75
2023-04-21T09:35:56.088Z,65.67
2023-04-21T09:36:56.104Z,65.35
2023-04-21T09:37:56.238Z,63.99
2023-04-21T09:39:17.381Z,65.11
2023-04-21T09:40:57.686Z,62.97
2023-04-21T09:41:56.775Z,63.75
2023-04-21T09:42:56.877Z,66.07
2023-04-21T09:43:57.006Z,64.69
2023-04-21T09:45:10.874Z,63.67
2023-04-21T09:45:58.318Z,64.20
2023-04-21T09:46:57.395Z,63.54
2023-04-21T09:47:57.568Z,64.26
2023-04-21T09:48:57.682Z,64.79
2023-04-21T09:49:57.823Z,65.03
2023-04-21T09:52:17.740Z,64.34
2023-04-21T09:52:59.238Z,64.78
2023-04-21T09:53:58.367Z,63.80
2023-04-21T09:54:58.546Z,64.95
2023-04-21T09:55:58.761Z,64.83
2023-04-21T09:56:58.789Z,64.23
2023-04-21T09:57:58.932Z,64.01
2023-04-21T09:58:59.050Z,64.56
2023-04-21T09:59:59.214Z,63.69
2023-04-21T10:00:59.309Z,65.02
2023-04-21T10:01:59.537Z,63.37
2023-04-21T10:02:59.726Z,62.41
2023-04-21T10:04:00.102Z,62.85
2023-04-21T10:05:00.165Z,63.83
2023-04-21T10:06:00.034Z,63.89
2023-04-21T10:07:00.100Z,64.40
2023-04-21T10:08:00.256Z,65.64
2023-04-21T10:09:00.362Z,65.07
2023-04-21T10:10:00.527Z,63.43
2023-04-21T10:11:00.616Z,64.96
2023-04-21T10:12:00.742Z,64.27
2023-04-21T10:13:00.933Z,63.30
2023-04-21T10:14:01.007Z,63.05
2023-04-21T10:15:01.176Z,62.92
2023-04-21T10:16:01.383Z,64.68
2023-04-21T10:17:01.391Z,63.24
2023-04-21T10:18:01.535Z,63.28
2023-04-21T10:19:01.700Z,63.19
2023-04-21T10:20:01.831Z,63.46
2023-04-21T10:21:02.468Z,63.06
2023-04-21T10:22:02.056Z,62.45
2023-04-21T10:23:02.190Z,62.45
2023-04-21T10:24:02.327Z,63.05
2023-04-21T10:25:02.496Z,63.36
2023-04-21T10:26:02.608Z,63.71
2023-04-21T10:27:02.717Z,62.83
2023-04-21T10:28:02.871Z,63.14
2023-04-21T10:29:03.006Z,62.75
2023-04-21T10:30:03.210Z,62.76
2023-04-21T10:31:03.236Z,63.39
2023-04-21T10:32:03.456Z,63.35
2023-04-21T10:33:03.653Z,62.44
2023-04-21T10:34:03.684Z,63.16
2023-04-21T10:35:03.795Z,62.85
2023-04-21T10:36:03.923Z,63.60
2023-04-21T10:37:04.036Z,63.34
2023-04-21T10:38:04.486Z,63.04
2023-04-21T10:39:04.339Z,62.50
2023-04-21T10:40:04.426Z,61.63
2023-04-21T10:41:04.557Z,61.60
2023-04-21T10:42:04.703Z,61.97
2023-04-21T10:43:04.842Z,62.53
2023-04-21T10:44:04.991Z,61.14
2023-04-21T10:45:05.130Z,60.91
2023-04-21T10:46:05.269Z,62.04
2023-04-21T10:47:05.476Z,60.86
2023-04-21T10:48:05.560Z,59.55
2023-04-21T10:49:05.751Z,60.35
2023-04-21T10:50:05.795Z,61.03
2023-04-21T10:51:05.940Z,60.76
2023-04-21T10:52:06.100Z,61.86
2023-04-21T10:53:06.228Z,62.14
2023-04-21T10:54:06.341Z,61.67
2023-04-21T10:55:06.554Z,62.04
2023-04-21T10:56:06.704Z,62.65
2023-04-21T10:57:06.741Z,62.49
2023-04-21T10:58:06.873Z,62.07
2023-04-21T10:59:07.039Z,62.14
2023-04-21T11:00:07.292Z,61.24
2023-04-21T11:01:07.331Z,62.39
2023-04-21T11:02:07.499Z,62.14
2023-04-21T11:03:07.847Z,62.64
2023-04-21T11:04:07.879Z,60.94
2023-04-21T11:05:07.960Z,61.03
2023-04-21T11:06:07.919Z,62.51
2023-04-21T11:07:08.077Z,61.22
2023-04-21T11:08:08.257Z,61.37
2023-04-21T11:09:08.357Z,61.24
2023-04-21T11:10:08.462Z,60.47
2023-04-21T11:11:08.611Z,62.38
2023-04-21T11:12:08.708Z,62.30
2023-04-21T11:13:08.875Z,61.81
2023-04-21T11:14:08.973Z,60.69
2023-04-21T11:15:09.107Z,60.57
2023-04-21T11:16:09.310Z,61.42
2023-04-21T11:17:09.522Z,60.45
2023-04-21T11:18:09.634Z,59.76
2023-04-21T11:19:09.633Z,61.40
2023-04-21T11:20:09.798Z,60.83
2023-04-21T11:21:09.936Z,61.61
2023-04-21T11:22:10.034Z,60.33
2023-04-21T11:23:10.210Z,60.01
2023-04-21T11:24:10.305Z,60.11
2023-04-21T11:25:10.415Z,59.87
2023-04-21T11:26:10.557Z,59.73
2023-04-21T11:27:10.698Z,59.49
2023-04-21T11:28:10.870Z,60.55
2023-04-21T11:29:10.963Z,59.55
2023-04-21T11:30:11.091Z,60.81
2023-04-21T11:31:11.278Z,60.15
2023-04-21T11:32:11.368Z,58.92
2023-04-21T11:33:11.614Z,59.13
2023-04-21T11:34:11.633Z,58.42
2023-04-21T11:35:11.762Z,58.55
2023-04-21T11:36:11.992Z,58.29
2023-04-21T11:37:12.044Z,57.84
2023-04-21T11:38:12.219Z,57.48
2023-04-21T11:39:12.323Z,57.97
2023-04-21T11:40:12.438Z,57.47
2023-04-21T11:41:12.574Z,57.54
2023-04-21T11:42:12.703Z,58.24
2023-04-21T11:43:12.869Z,58.39
2023-04-21T11:44:13.010Z,58.73
2023-04-21T11:45:13.147Z,58.26
2023-04-21T11:46:13.286Z,57.72
2023-04-21T11:47:13.366Z,57.08
2023-04-21T11:48:13.591Z,55.90
2023-04-21T11:49:13.652Z,56.82
2023-04-21T11:50:13.778Z,57.00
2023-04-21T11:51:13.883Z,56.63
2023-04-21T11:52:14.011Z,55.95
2023-04-21T11:53:14.154Z,55.68
2023-04-21T11:54:14.343Z,56.94
2023-04-21T11:55:14.447Z,55.85
2023-04-21T11:56:14.591Z,56.27
2023-04-21T11:57:14.695Z,56.34
2023-04-21T11:58:14.863Z,56.49
2023-04-21T11:59:15.004Z,55.73
2023-04-21T12:00:15.115Z,56.68
2023-04-21T12:01:15.202Z,56.47
2023-04-21T12:02:15.418Z,55.76
2023-04-21T12:03:15.635Z,55.45
2023-04-21T12:04:15.697Z,55.21
2023-04-21T12:05:15.910Z,56.69
2023-04-21T12:06:15.950Z,55.66
2023-04-21T12:07:15.943Z,55.02
2023-04-21T12:08:16.083Z,54.99
2023-04-21T12:09:16.220Z,54.11
2023-04-21T12:10:16.383Z,52.70
2023-04-21T12:11:16.478Z,53.45
2023-04-21T12:12:16.611Z,53.21
2023-04-21T12:13:18.110Z,53.72
2023-04-21T12:14:16.910Z,53.72
2023-04-21T12:15:17.041Z,52.84
2023-04-21T12:16:17.197Z,52.87
2023-04-21T12:17:17.246Z,53.65
2023-04-21T12:18:17.366Z,53.18
2023-04-21T12:19:17.511Z,53.61
2023-04-21T12:20:17.849Z,52.16
2023-04-21T12:21:17.795Z,53.02
2023-04-21T12:22:17.917Z,53.56
2023-04-21T12:23:18.048Z,53.11
2023-04-21T12:24:18.179Z,53.65
2023-04-21T12:25:18.420Z,53.21
2023-04-21T12:26:18.450Z,53.54
2023-04-21T12:27:18.588Z,52.14
2023-04-21T12:28:18.753Z,50.56
2023-04-21T12:29:18.866Z,51.60
2023-04-21T12:30:19.015Z,51.83
2023-04-21T12:31:19.174Z,51.71
2023-04-21T12:32:19.369Z,50.63
2023-04-21T12:33:19.527Z,51.07
2023-04-21T12:34:19.519Z,49.25
2023-04-21T12:35:19.731Z,49.69
2023-04-21T12:36:19.894Z,50.03
2023-04-21T12:37:19.949Z,51.71
2023-04-21T12:38:21.068Z,49.56
2023-04-21T12:39:20.209Z,49.91
2023-04-21T12:40:20.393Z,49.09
2023-04-21T12:41:20.521Z,49.54
2023-04-21T12:42:20.651Z,48.52
2023-04-21T12:43:20.744Z,48.31
2023-04-21T12:44:20.877Z,48.98
2023-04-21T12:45:20.986Z,48.18
2023-04-21T12:46:21.392Z,48.43
2023-04-21T12:47:21.280Z,47.81
2023-04-21T12:48:21.360Z,47.78
2023-04-21T12:49:21.448Z,48.09
2023-04-21T12:50:21.613Z,48.08
2023-04-21T12:51:21.708Z,49.06
2023-04-21T12:52:21.816Z,48.38
2023-04-21T12:53:21.916Z,48.66
2023-04-21T12:54:22.016Z,49.09
2023-04-21T12:55:22.153Z,47.33
2023-04-21T12:56:22.391Z,47.05
2023-04-21T12:57:22.430Z,48.33
2023-04-21T12:58:22.518Z,46.96